createdAt,value
2023-04-16T00:01:23.409Z,8.03
2023-04-16T00:03:50.042Z,8.02
2023-04-16T00:06:16.738Z,8.03
2023-04-16T00:08:43.637Z,8.02
2023-04-16T00:11:10.485Z,8.01
2023-04-16T00:13:37.261Z,8.01
2023-04-16T00:16:03.791Z,8.05
2023-04-16T00:18:30.844Z,8.03
2023-04-16T00:20:57.286Z,8.03
2023-04-16T00:23:25.359Z,8.03
2023-04-16T00:25:52.226Z,8.03
2023-04-16T00:28:18.654Z,8.02
2023-04-16T00:30:45.201Z,8.02
2023-04-16T00:33:11.659Z,8.03
2023-04-16T00:35:38.213Z,8.01
2023-04-16T00:38:04.721Z,8.01
2023-04-16T00:40:31.391Z,8.00
2023-04-16T00:42:57.911Z,8.02
2023-04-16T00:45:24.376Z,8.04
2023-04-16T00:47:50.905Z,8.03
2023-04-16T00:50:17.697Z,7.99
2023-04-16T00:52:47.046Z,7.97
2023-04-16T00:55:13.819Z,7.98
2023-04-16T00:57:40.300Z,7.97
2023-04-16T01:00:07.429Z,7.96
2023-04-16T01:02:34.266Z,7.96
2023-04-16T01:05:02.055Z,7.95
2023-04-16T01:07:28.749Z,7.96
2023-04-16T01:09:55.361Z,7.97
2023-04-16T01:12:21.936Z,7.98
2023-04-16T01:14:48.734Z,7.98
2023-04-16T01:17:15.335Z,7.96
2023-04-16T01:19:42.511Z,7.97
2023-04-16T01:22:08.997Z,7.96
2023-04-16T01:24:36.398Z,7.95
2023-04-16T01:27:03.002Z,7.94
2023-04-16T01:29:29.495Z,7.94
2023-04-16T01:31:56.199Z,7.95
2023-04-16T01:34:23.170Z,7.96
2023-04-16T01:36:49.675Z,7.96
2023-04-16T01:39:16.548Z,7.97
2023-04-16T01:41:43.719Z,7.96
2023-04-16T01:44:10.500Z,7.96
2023-04-16T01:46:38.176Z,7.98
2023-04-16T01:49:05.860Z,7.94
2023-04-16T01:51:32.425Z,7.94
2023-04-16T01:53:59.201Z,7.96
2023-04-16T01:56:25.871Z,7.95
2023-04-16T01:58:52.933Z,7.95
2023-04-16T02:01:19.553Z,7.96
2023-04-16T02:03:46.541Z,7.98
2023-04-16T02:06:13.073Z,7.97
2023-04-16T02:08:39.620Z,7.97
2023-04-16T02:11:06.113Z,7.98
2023-04-16T02:13:32.615Z,8.00
2023-04-16T02:15:59.338Z,8.02
2023-04-16T02:18:25.873Z,8.02
2023-04-16T02:20:52.309Z,8.04
2023-04-16T02:23:18.741Z,8.05
2023-04-16T02:25:46.643Z,8.03
2023-04-16T02:28:15.456Z,8.03
2023-04-16T02:30:42.533Z,8.06
2023-04-16T02:33:11.410Z,8.05
2023-04-16T02:35:39.418Z,8.07
2023-04-16T02:38:06.479Z,8.07
2023-04-16T02:40:33.196Z,8.08
2023-04-16T02:42:59.625Z,8.09
2023-04-16T02:45:26.053Z,8.11
2023-04-16T02:47:52.528Z,8.12
2023-04-16T02:50:19.182Z,8.12
2023-04-16T02:52:45.867Z,8.14
2023-04-16T02:55:12.390Z,8.14
2023-04-16T02:57:38.876Z,8.14
2023-04-16T03:00:06.058Z,8.16
2023-04-16T03:02:32.716Z,8.16
2023-04-16T03:04:59.413Z,8.16
2023-04-16T03:07:26.198Z,8.16
2023-04-16T03:09:52.787Z,8.15
2023-04-16T03:12:19.244Z,8.15
2023-04-16T03:14:45.714Z,8.14
2023-04-16T03:17:12.212Z,8.13
2023-04-16T03:19:38.700Z,8.12
2023-04-16T03:22:05.392Z,8.12
2023-04-16T03:24:32.293Z,8.13
2023-04-16T03:26:58.932Z,8.14
2023-04-16T03:29:26.724Z,8.15
2023-04-16T03:31:53.464Z,8.15
2023-04-16T03:34:20.059Z,8.15
2023-04-16T03:36:46.511Z,8.14
2023-04-16T03:39:13.025Z,8.13
2023-04-16T03:41:39.440Z,8.12
2023-04-16T03:44:05.947Z,8.10
2023-04-16T03:46:32.375Z,8.09
2023-04-16T03:48:58.868Z,8.09
2023-04-16T03:51:26.228Z,8.10
2023-04-16T03:53:52.763Z,8.10
2023-04-16T03:56:19.313Z,8.09
2023-04-16T03:58:45.812Z,8.09
2023-04-16T04:01:12.268Z,8.07
2023-04-16T04:03:38.878Z,8.06
2023-04-16T04:06:09.045Z,8.06
2023-04-16T04:08:35.613Z,8.05
2023-04-16T04:11:02.043Z,8.07
2023-04-16T04:13:28.616Z,8.07
2023-04-16T04:15:55.191Z,8.07
2023-04-16T04:18:21.733Z,8.06
2023-04-16T04:20:48.190Z,8.08
2023-04-16T04:23:14.695Z,8.09
2023-04-16T04:25:41.111Z,8.10
2023-04-16T04:28:07.568Z,8.08
2023-04-16T04:30:35.703Z,8.09
2023-04-16T04:33:02.300Z,8.10
2023-04-16T04:35:28.859Z,8.11
2023-04-16T04:37:55.721Z,8.11
2023-04-16T04:40:22.371Z,8.12
2023-04-16T04:42:48.938Z,8.12
2023-04-16T04:45:15.667Z,8.11
2023-04-16T04:47:42.200Z,8.10
2023-04-16T04:50:09.177Z,8.09
2023-04-16T04:52:35.935Z,8.08
2023-04-16T04:55:02.445Z,8.07
2023-04-16T04:57:28.939Z,8.07
2023-04-16T04:59:55.445Z,8.08
2023-04-16T05:02:21.978Z,8.08
2023-04-16T05:04:48.571Z,8.09
2023-04-16T05:07:16.245Z,8.09
2023-04-16T05:09:42.706Z,8.10
2023-04-16T05:12:09.198Z,8.10
2023-04-16T05:14:36.315Z,8.09
2023-04-16T05:17:02.948Z,8.08
2023-04-16T05:19:29.691Z,8.11
2023-04-16T05:21:56.273Z,8.09
2023-04-16T05:24:23.101Z,8.13
2023-04-16T05:26:49.553Z,8.12
2023-04-16T05:29:16.007Z,8.11
2023-04-16T05:31:42.562Z,8.12
2023-04-16T05:34:09.003Z,8.14
2023-04-16T05:36:35.463Z,8.14
2023-04-16T05:39:03.166Z,8.16
2023-04-16T05:41:29.701Z,8.13
2023-04-16T05:43:56.226Z,8.15
2023-04-16T05:46:22.821Z,8.16
2023-04-16T05:48:49.319Z,8.15
2023-04-16T05:51:15.935Z,8.16
2023-04-16T05:53:42.685Z,8.17
2023-04-16T05:56:09.290Z,8.16
2023-04-16T05:58:35.774Z,8.18
2023-04-16T06:01:02.330Z,8.17
2023-04-16T06:03:28.943Z,8.18
2023-04-16T06:05:55.558Z,8.20
2023-04-16T06:08:22.166Z,8.22
2023-04-16T06:10:49.117Z,8.22
2023-04-16T06:13:15.704Z,8.26
2023-04-16T06:15:42.341Z,8.23
2023-04-16T06:18:09.097Z,8.22
2023-04-16T06:20:36.422Z,8.24
2023-04-16T06:23:02.885Z,8.27
2023-04-16T06:25:29.415Z,8.26
2023-04-16T06:27:55.907Z,8.28
2023-04-16T06:30:22.337Z,8.29
2023-04-16T06:32:49.475Z,8.31
2023-04-16T06:35:16.158Z,8.33
2023-04-16T06:37:42.602Z,8.35
2023-04-16T06:40:09.521Z,8.36
2023-04-16T06:42:36.163Z,8.36
2023-04-16T06:45:02.728Z,8.37
2023-04-16T06:47:29.192Z,8.41
2023-04-16T06:49:55.642Z,8.43
2023-04-16T06:52:22.175Z,8.45
2023-04-16T06:54:48.669Z,8.44
2023-04-16T06:57:16.108Z,8.44
2023-04-16T06:59:42.825Z,8.45
2023-04-16T07:02:10.835Z,8.44
2023-04-16T07:04:37.478Z,8.44
2023-04-16T07:07:03.992Z,8.46
2023-04-16T07:09:30.523Z,8.49
2023-04-16T07:11:57.036Z,8.51
2023-04-16T07:14:23.508Z,8.54
2023-04-16T07:16:50.296Z,8.54
2023-04-16T07:19:16.803Z,8.52
2023-04-16T07:21:43.796Z,8.54
2023-04-16T07:24:11.685Z,8.58
2023-04-16T07:26:38.171Z,8.59
2023-04-16T07:29:04.762Z,8.62
2023-04-16T07:31:31.492Z,8.60
2023-04-16T07:33:58.655Z,8.64
2023-04-16T07:36:25.653Z,8.63
2023-04-16T07:38:52.058Z,8.65
2023-04-16T07:41:18.557Z,8.65
2023-04-16T07:43:44.961Z,8.64
2023-04-16T07:46:11.487Z,8.66
2023-04-16T07:48:37.924Z,8.66
2023-04-16T07:51:04.477Z,8.69
2023-04-16T07:53:30.963Z,8.68
2023-04-16T07:55:57.358Z,8.69
2023-04-16T07:58:23.752Z,8.71
2023-04-16T08:00:51.031Z,8.75
2023-04-16T08:03:18.485Z,8.75
2023-04-16T08:05:45.129Z,8.79
2023-04-16T08:08:11.664Z,8.80
2023-04-16T08:10:39.131Z,8.80
2023-04-16T08:13:05.916Z,8.80
2023-04-16T08:15:32.500Z,8.79
2023-04-16T08:17:59.682Z,8.81
2023-04-16T08:20:26.313Z,8.86
2023-04-16T08:22:54.333Z,8.83
2023-04-16T08:25:21.182Z,8.87
2023-04-16T08:27:47.775Z,8.92
2023-04-16T08:30:15.201Z,8.93
2023-04-16T08:32:41.725Z,8.95
2023-04-16T08:35:08.753Z,8.97
2023-04-16T08:37:35.399Z,9.03
2023-04-16T08:40:02.481Z,9.06
2023-04-16T08:42:34.382Z,9.11
2023-04-16T08:45:21.275Z,9.10
2023-04-16T08:47:49.999Z,9.15
2023-04-16T08:50:18.335Z,9.22
2023-04-16T08:52:58.786Z,9.25
2023-04-16T08:55:36.403Z,9.33
2023-04-16T08:58:08.252Z,9.33
2023-04-16T09:00:37.546Z,9.36
2023-04-16T09:03:04.594Z,9.38
2023-04-16T09:05:33.184Z,9.38
2023-04-16T09:07:59.739Z,9.36
2023-04-16T09:10:27.028Z,9.41
2023-04-16T09:12:57.260Z,9.49
2023-04-16T09:15:25.571Z,9.49
2023-04-16T09:17:52.888Z,9.51
2023-04-16T09:20:20.730Z,9.57
2023-04-16T09:22:47.230Z,9.56
2023-04-16T09:25:14.818Z,9.62
2023-04-16T09:27:41.367Z,9.66
2023-04-16T09:30:21.940Z,9.68
2023-04-16T09:32:48.614Z,9.68
2023-04-16T09:35:15.840Z,9.68
2023-04-16T09:37:42.432Z,9.66
2023-04-16T09:40:09.639Z,9.72
2023-04-16T09:42:39.662Z,9.75
2023-04-16T09:45:06.791Z,9.73
2023-04-16T09:47:44.140Z,9.71
2023-04-16T09:50:17.773Z,9.74
2023-04-16T09:52:48.568Z,9.72
2023-04-16T09:55:15.418Z,9.73
2023-04-16T09:57:42.000Z,9.77
2023-04-16T10:00:10.142Z,9.79
2023-04-16T10:02:41.742Z,9.84
2023-04-16T10:05:09.051Z,9.87
2023-04-16T10:07:36.908Z,9.84
2023-04-16T10:10:04.885Z,9.77
2023-04-16T10:12:32.790Z,9.81
2023-04-16T10:14:59.339Z,9.81
2023-04-16T10:17:27.270Z,9.78
2023-04-16T10:19:54.627Z,9.79
2023-04-16T10:22:21.351Z,9.86
2023-04-16T10:24:48.779Z,9.85
2023-04-16T10:27:16.615Z,9.83
2023-04-16T10:29:44.099Z,9.88
2023-04-16T10:32:11.002Z,9.94
2023-04-16T10:34:37.607Z,9.90
2023-04-16T10:37:04.077Z,9.95
2023-04-16T10:39:30.745Z,9.95
2023-04-16T10:42:13.465Z,9.94
2023-04-16T10:44:44.353Z,9.98
2023-04-16T10:47:13.272Z,10.03
2023-04-16T10:49:41.049Z,10.00
2023-04-16T10:52:11.428Z,10.05
2023-04-16T10:54:39.169Z,10.00
2023-04-16T10:57:12.249Z,10.04
2023-04-16T10:59:39.745Z,10.10
2023-04-16T11:02:15.618Z,10.10
2023-04-16T11:04:44.899Z,10.13
2023-04-16T11:07:11.680Z,10.22
2023-04-16T11:09:50.497Z,10.25
2023-04-16T11:12:22.552Z,10.18
2023-04-16T11:14:53.118Z,10.18
2023-04-16T11:17:21.532Z,10.13
2023-04-16T11:19:48.343Z,10.18
2023-04-16T11:22:17.337Z,10.24
2023-04-16T11:24:46.005Z,10.25
2023-04-16T11:27:15.967Z,10.26
2023-04-16T11:29:43.540Z,10.32
2023-04-16T11:32:21.095Z,10.30
2023-04-16T11:34:47.645Z,10.26
2023-04-16T11:37:14.208Z,10.24
2023-04-16T11:39:51.356Z,10.28
2023-04-16T11:42:23.726Z,10.40
2023-04-16T11:44:55.110Z,10.35
2023-04-16T11:47:23.075Z,10.38
2023-04-16T11:49:50.025Z,10.45
2023-04-16T11:52:30.035Z,10.52
2023-04-16T11:54:57.676Z,10.46
2023-04-16T11:57:31.741Z,10.41
2023-04-16T12:00:02.407Z,10.48
2023-04-16T12:02:36.509Z,10.61
2023-04-16T12:05:04.498Z,10.64
2023-04-16T12:07:31.103Z,10.57
2023-04-16T12:10:08.006Z,10.67
2023-04-16T12:12:35.378Z,10.64
2023-04-16T12:15:05.063Z,10.74
2023-04-16T12:17:33.559Z,10.81
2023-04-16T12:20:03.748Z,10.84
2023-04-16T12:22:36.742Z,10.83
2023-04-16T12:25:06.079Z,10.75
2023-04-16T12:27:54.082Z,10.74
2023-04-16T12:30:23.317Z,10.70
2023-04-16T12:32:52.487Z,10.62
2023-04-16T12:35:34.985Z,10.61
2023-04-16T12:38:01.586Z,10.60
2023-04-16T12:40:28.242Z,10.57
2023-04-16T12:42:55.109Z,10.54
2023-04-16T12:45:22.036Z,10.49
2023-04-16T12:47:48.645Z,10.45
2023-04-16T12:50:15.265Z,10.51
2023-04-16T12:52:41.817Z,10.59
2023-04-16T12:55:08.686Z,10.78
2023-04-16T12:57:35.389Z,10.87
2023-04-16T13:00:01.943Z,10.89
2023-04-16T13:02:29.576Z,10.86
2023-04-16T13:04:56.257Z,10.91
2023-04-16T13:07:22.804Z,10.83
2023-04-16T13:09:49.231Z,10.95
2023-04-16T13:12:15.778Z,10.95
2023-04-16T13:14:44.623Z,10.94
2023-04-16T13:17:11.544Z,10.85
2023-04-16T13:19:38.005Z,10.75
2023-04-16T13:22:04.472Z,10.79
2023-04-16T13:24:30.972Z,10.86
2023-04-16T13:26:57.533Z,10.93
2023-04-16T13:29:24.067Z,10.93
2023-04-16T13:31:50.700Z,10.94
2023-04-16T13:34:17.202Z,11.02
2023-04-16T13:36:43.696Z,10.98
2023-04-16T13:39:12.847Z,10.92
2023-04-16T13:41:40.349Z,11.01
2023-04-16T13:44:07.269Z,10.96
2023-04-16T13:46:34.192Z,10.83
2023-04-16T13:49:01.262Z,10.78
2023-04-16T13:51:27.851Z,10.80
2023-04-16T13:53:55.934Z,10.78
2023-04-16T13:56:22.544Z,10.89
2023-04-16T13:58:49.340Z,10.94
2023-04-16T14:01:17.315Z,11.02
2023-04-16T14:03:44.323Z,11.08
2023-04-16T14:06:11.057Z,11.20
2023-04-16T14:08:38.222Z,11.40
2023-04-16T14:11:06.416Z,11.47
2023-04-16T14:13:33.000Z,11.50
2023-04-16T14:15:59.600Z,11.56
2023-04-16T14:18:26.132Z,11.62
2023-04-16T14:20:52.588Z,11.80
2023-04-16T14:23:19.071Z,11.83
2023-04-16T14:25:45.568Z,11.74
2023-04-16T14:28:13.650Z,11.84
2023-04-16T14:30:41.970Z,12.01
2023-04-16T14:33:08.521Z,12.06
2023-04-16T14:35:36.026Z,11.96
2023-04-16T14:38:02.732Z,11.85
2023-04-16T14:40:29.302Z,11.66
2023-04-16T14:42:55.795Z,11.55
2023-04-16T14:45:22.708Z,11.42
2023-04-16T14:47:50.593Z,11.30
2023-04-16T14:50:17.074Z,11.31
2023-04-16T14:52:43.508Z,11.47
2023-04-16T14:55:10.019Z,11.59
2023-04-16T14:57:36.577Z,11.61
2023-04-16T15:00:07.513Z,11.56
2023-04-16T15:02:35.210Z,11.53
2023-04-16T15:05:01.996Z,11.47
2023-04-16T15:07:28.545Z,11.49
2023-04-16T15:09:55.481Z,11.60
2023-04-16T15:12:21.951Z,11.70
2023-04-16T15:14:48.372Z,11.89
2023-04-16T15:17:14.768Z,11.98
2023-04-16T15:19:41.306Z,12.01
2023-04-16T15:22:07.787Z,12.14
2023-04-16T15:24:34.190Z,12.03
2023-04-16T15:27:02.309Z,11.96
2023-04-16T15:29:28.953Z,12.01
2023-04-16T15:31:55.535Z,11.90
2023-04-16T15:34:22.078Z,11.79
2023-04-16T15:36:48.446Z,11.66
2023-04-16T15:39:14.919Z,11.62
2023-04-16T15:41:53.643Z,11.55
2023-04-16T15:44:26.802Z,11.53
2023-04-16T15:46:53.209Z,11.48
2023-04-16T15:49:19.661Z,11.38
2023-04-16T15:51:46.234Z,11.31
2023-04-16T15:54:12.784Z,11.30
2023-04-16T15:56:39.675Z,11.24
2023-04-16T15:59:06.433Z,11.17
2023-04-16T16:01:32.930Z,11.10
2023-04-16T16:03:59.745Z,11.10
2023-04-16T16:06:27.149Z,11.08
2023-04-16T16:08:54.561Z,11.17
2023-04-16T16:11:21.838Z,11.08
2023-04-16T16:13:48.389Z,11.17
2023-04-16T16:16:15.412Z,11.18
2023-04-16T16:18:42.306Z,10.98
2023-04-16T16:21:08.855Z,10.85
2023-04-16T16:23:35.354Z,10.85
2023-04-16T16:26:01.812Z,10.84
2023-04-16T16:28:28.272Z,10.78
2023-04-16T16:30:55.489Z,10.63
2023-04-16T16:33:22.365Z,10.57
2023-04-16T16:35:48.880Z,10.57
2023-04-16T16:38:15.545Z,10.70
2023-04-16T16:40:42.057Z,10.74
2023-04-16T16:43:08.536Z,10.66
2023-04-16T16:45:35.049Z,10.68
2023-04-16T16:48:03.486Z,10.62
2023-04-16T16:50:33.125Z,10.63
2023-04-16T16:53:00.198Z,10.59
2023-04-16T16:55:26.930Z,10.54
2023-04-16T16:57:53.454Z,10.39
2023-04-16T17:00:21.509Z,10.30
2023-04-16T17:02:51.119Z,10.25
2023-04-16T17:05:17.948Z,10.28
2023-04-16T17:07:44.774Z,10.31
2023-04-16T17:10:13.386Z,10.28
2023-04-16T17:12:39.748Z,10.26
2023-04-16T17:15:06.731Z,10.16
2023-04-16T17:17:33.361Z,10.06
2023-04-16T17:20:01.048Z,9.91
2023-04-16T17:22:27.618Z,9.80
2023-04-16T17:24:54.387Z,9.83
2023-04-16T17:27:20.957Z,9.74
2023-04-16T17:29:47.376Z,9.67
2023-04-16T17:32:13.927Z,9.76
2023-04-16T17:34:40.815Z,9.72
2023-04-16T17:37:07.274Z,9.68
2023-04-16T17:39:33.709Z,9.71
2023-04-16T17:42:02.963Z,9.72
2023-04-16T17:44:29.393Z,9.66
2023-04-16T17:46:56.867Z,9.64
2023-04-16T17:49:23.341Z,9.61
2023-04-16T17:51:49.864Z,9.54
2023-04-16T17:54:16.264Z,9.53
2023-04-16T17:56:42.725Z,9.57
2023-04-16T17:59:09.142Z,9.63
2023-04-16T18:01:35.722Z,9.54
2023-04-16T18:04:02.455Z,9.52
2023-04-16T18:06:29.130Z,9.48
2023-04-16T18:08:55.560Z,9.43
2023-04-16T18:11:22.222Z,9.43
2023-04-16T18:13:48.720Z,9.32
2023-04-16T18:16:16.755Z,9.21
2023-04-16T18:18:44.249Z,9.17
2023-04-16T18:21:10.901Z,9.18
2023-04-16T18:23:37.545Z,9.18
2023-04-16T18:26:04.235Z,9.23
2023-04-16T18:28:30.643Z,9.16
2023-04-16T18:30:59.007Z,9.15
2023-04-16T18:33:52.613Z,9.15
2023-04-16T18:36:14.591Z,9.19
2023-04-16T18:38:52.936Z,9.19
2023-04-16T18:41:26.282Z,9.13
2023-04-16T18:43:52.759Z,9.15
2023-04-16T18:46:19.217Z,9.07
2023-04-16T18:48:45.818Z,9.05
2023-04-16T18:51:14.187Z,9.00
2023-04-16T18:53:44.143Z,9.01
2023-04-16T18:56:11.114Z,8.99
2023-04-16T18:58:37.913Z,8.97
2023-04-16T19:01:04.889Z,8.93
2023-04-16T19:03:32.193Z,8.94
2023-04-16T19:05:58.813Z,8.93
2023-04-16T19:08:25.307Z,8.93
2023-04-16T19:10:51.863Z,8.90
2023-04-16T19:13:18.552Z,8.89
2023-04-16T19:15:45.352Z,8.87
2023-04-16T19:18:11.818Z,8.85
2023-04-16T19:20:38.482Z,8.82
2023-04-16T19:23:05.765Z,8.81
2023-04-16T19:25:32.512Z,8.84
2023-04-16T19:27:58.942Z,8.79
2023-04-16T19:30:26.458Z,8.75
2023-04-16T19:32:55.180Z,8.69
2023-04-16T19:35:22.294Z,8.71
2023-04-16T19:37:49.039Z,8.74
2023-04-16T19:40:15.502Z,8.76
2023-04-16T19:42:42.013Z,8.73
2023-04-16T19:45:08.716Z,8.79
2023-04-16T19:47:35.562Z,8.80
2023-04-16T19:50:02.207Z,8.78
2023-04-16T19:52:28.776Z,8.79
2023-04-16T19:54:55.196Z,8.80
2023-04-16T19:57:21.620Z,8.80
2023-04-16T19:59:48.027Z,8.83
2023-04-16T20:02:14.475Z,8.84
2023-04-16T20:04:41.016Z,8.80
2023-04-16T20:07:07.465Z,8.77
2023-04-16T20:09:33.898Z,8.78
2023-04-16T20:12:00.774Z,8.71
2023-04-16T20:14:27.347Z,8.71
2023-04-16T20:16:53.885Z,8.67
2023-04-16T20:19:20.446Z,8.67
2023-04-16T20:21:46.926Z,8.63
2023-04-16T20:24:15.347Z,8.63
2023-04-16T20:26:41.964Z,8.64
2023-04-16T20:29:10.280Z,8.66
2023-04-16T20:31:36.968Z,8.62
2023-04-16T20:34:03.869Z,8.60
2023-04-16T20:36:30.433Z,8.56
2023-04-16T20:38:56.945Z,8.55
2023-04-16T20:41:25.183Z,8.54
2023-04-16T20:43:52.742Z,8.56
2023-04-16T20:46:23.870Z,8.59
2023-04-16T20:48:51.781Z,8.54
2023-04-16T20:51:18.224Z,8.49
2023-04-16T20:53:44.819Z,8.49
2023-04-16T20:56:14.693Z,8.50
2023-04-16T20:58:42.660Z,8.49
2023-04-16T21:01:09.312Z,8.51
2023-04-16T21:03:36.562Z,8.55
2023-04-16T21:06:03.838Z,8.56
2023-04-16T21:08:30.326Z,8.54
2023-04-16T21:10:56.815Z,8.48
2023-04-16T21:13:23.398Z,8.39
2023-04-16T21:15:49.970Z,8.29
2023-04-16T21:18:18.529Z,8.28
2023-04-16T21:20:45.160Z,8.30
2023-04-16T21:23:11.702Z,8.33
2023-04-16T21:25:38.122Z,8.34
2023-04-16T21:28:05.006Z,8.32
2023-04-16T21:30:31.569Z,8.34
2023-04-16T21:32:58.139Z,8.31
2023-04-16T21:35:24.621Z,8.25
2023-04-16T21:37:51.214Z,8.26
2023-04-16T21:40:17.810Z,8.25
2023-04-16T21:42:44.608Z,8.27
2023-04-16T21:45:11.376Z,8.27
2023-04-16T21:47:38.352Z,8.31
2023-04-16T21:50:05.808Z,8.31
2023-04-16T21:52:32.935Z,8.31
2023-04-16T21:55:00.296Z,8.28
2023-04-16T21:57:26.953Z,8.29
2023-04-16T21:59:53.520Z,8.29
2023-04-16T22:02:20.129Z,8.26
2023-04-16T22:04:46.839Z,8.26
2023-04-16T22:07:13.356Z,8.24
2023-04-16T22:09:40.720Z,8.23
2023-04-16T22:12:10.136Z,8.22
2023-04-16T22:14:39.221Z,8.18
2023-04-16T22:17:09.395Z,8.15
2023-04-16T22:19:37.203Z,8.15
2023-04-16T22:22:03.673Z,8.18
2023-04-16T22:24:30.210Z,8.19
2023-04-16T22:26:57.041Z,8.16
2023-04-16T22:29:23.463Z,8.16
2023-04-16T22:31:50.016Z,8.18
2023-04-16T22:34:16.666Z,8.11
2023-04-16T22:36:43.090Z,8.12
2023-04-16T22:39:10.033Z,8.12
2023-04-16T22:41:37.483Z,8.08
2023-04-16T22:44:04.059Z,8.07
2023-04-16T22:46:31.064Z,8.05
2023-04-16T22:48:57.867Z,8.06
2023-04-16T22:51:24.557Z,8.04
2023-04-16T22:53:51.887Z,8.05
2023-04-16T22:56:21.772Z,8.03
2023-04-16T22:58:51.096Z,8.06
2023-04-16T23:01:17.718Z,8.09
2023-04-16T23:03:44.274Z,8.05
2023-04-16T23:06:10.825Z,8.05
2023-04-16T23:08:37.395Z,8.04
2023-04-16T23:11:03.936Z,8.04
2023-04-16T23:13:30.437Z,8.01
2023-04-16T23:15:57.298Z,8.03
2023-04-16T23:18:23.894Z,7.96
2023-04-16T23:20:51.943Z,7.95
2023-04-16T23:23:18.716Z,7.93
2023-04-16T23:25:45.280Z,7.92
2023-04-16T23:28:11.754Z,7.93
2023-04-16T23:30:38.243Z,7.94
2023-04-16T23:33:04.863Z,7.91
2023-04-16T23:35:31.356Z,7.86
2023-04-16T23:37:57.818Z,7.84
2023-04-16T23:40:24.413Z,7.83
2023-04-16T23:42:50.887Z,7.82
2023-04-16T23:45:17.437Z,7.81
2023-04-16T23:47:44.797Z,7.82
2023-04-16T23:50:11.514Z,7.83
2023-04-16T23:52:37.996Z,7.78
2023-04-16T23:55:04.928Z,7.79
2023-04-16T23:57:31.400Z,7.84
2023-04-16T23:59:57.861Z,7.87
